Hawaii METAR Reports

 

PHOG - Kahului, Hawaii, USA
Distance from station: WNW 8mi, 13km
Updated: Sat, 26-Nov-2022 3:54pm HST
Mostly Cloudy
Mostly Cloudy
 Wind from NNE
Wind: NNE 12 mph , 19 km/h
Temperature: 75°F , 24°C
Dew Point: 63°F , 17°C
Humidity: 65%
Barometer: 29.92 inHg , 1013.2 hPa
Clouds: Mostly Cloudy
Visibility: 10 miles , 16 km
Cloud details: Partly Cloudy 3500 ft
Mostly Cloudy 6000 ft
2022/11/27 01:54 PHOG 270154Z 03010KT 10SM SCT035 BKN060 24/17 A2992 RMK AO2 SLP138 T02390172
PHJH - Lahaina/West Mau, Hawaii, USA
Distance from station: WNW 24mi, 39km
Updated: Wed, 15-Sep-2021 1:45pm HST
NOT Current
Partly Cloudy
Partly Cloudy
 Wind from NE
Wind: NE 17 mph , 28 km/h
Temperature: 84°F , 29°C
Heat Index: 87°F , 31°C
Dew Point: 68°F , 20°C
Humidity: 58%
Barometer: 29.96 inHg , 1014.6 hPa
Clouds: Partly Cloudy
Visibility: 10 miles , 16 km
Cloud details: Partly Cloudy 4500 ft
2021/09/15 23:45 PHJH 152345Z 05015KT 10SM SCT045 29/20 A2996
 
PHNY - Lanai City Airpo, Hawaii, USA
Distance from station: W 40mi, 65km
Updated: Sat, 26-Nov-2022 3:56pm HST
Partly Cloudy
Partly Cloudy
 Wind from NNE
Wind: NNE 15 mph , 24 km/h
Temperature: 70°F , 21°C
Dew Point: 63°F , 17°C
Humidity: 78%
Barometer: 29.96 inHg , 1014.6 hPa
Clouds: Partly Cloudy
Visibility: 10 miles , 16 km
Cloud details: Few Clouds 2200 ft
Partly Cloudy 2900 ft
2022/11/27 01:56 PHNY 270156Z AUTO 03013KT 10SM FEW022 SCT029 21/17 A2996 RMK AO2 SLP129 T02110167 $
PHMK - Molokai, Hawaii, USA
Distance from station: WNW 55mi, 88km
Updated: Sat, 26-Nov-2022 3:54pm HST
Overcast
Overcast
 Wind from NNE
Wind: NNE 10 mph , 17 km/h
Temperature: 72°F , 22°C
Dew Point: 63°F , 17°C
Humidity: 73%
Barometer: 29.94 inHg , 1013.9 hPa
Clouds: Overcast
Visibility: 10 miles , 16 km
Cloud details: Overcast 4100 ft
2022/11/27 01:54 PHMK 270154Z 03009KT 10SM OVC041 22/17 A2994 RMK AO2 SLP141 T02170172
 
PHKO - Kailua/Kona, Hawaii, USA
Distance from station: SSE 79mi, 128km
Updated: Sat, 26-Nov-2022 3:53pm HST
Overcast
Overcast
 Wind from WSW
Wind: WSW 8 mph , 13 km/h
Temperature: 79°F , 26°C
Dew Point: 64°F , 18°C
Humidity: 61%
Barometer: 29.90 inHg , 1012.5 hPa
Clouds: Overcast
Visibility: 10 miles , 16 km
Cloud details: Overcast 3600 ft
2022/11/27 01:53 PHKO 270153Z 25007KT 10SM OVC036 26/18 A2990 RMK AO2 SLP125 T02610178
PHSF - Bradshaw Aaf/Haw, Hawaii, USA
Distance from station: SE 90mi, 145km
Updated: Sat, 26-Nov-2022 3:58pm HST
Clear
Clear
 Wind from W
Wind: W 8 mph , 13 km/h
Temperature: 61°F , 16°C
Dew Point: 41°F , 5°C
Humidity: 48%
Barometer: 30.20 inHg , 1022.7 hPa
Clouds: Clear
Visibility: 9 miles , 14 km
2022/11/27 01:58 PHSF 270158Z AUTO 26007KT 9SM CLR 16/05 A3020 RMK AO2 SLP133 T01600046 $
 
PHNG - Kaneohe Mcas, Hawaii, USA
Distance from station: WNW 102mi, 164km
Updated: Sat, 26-Nov-2022 3:57pm HST
Overcast
Overcast
 Wind from NNE
Wind: NNE 7 mph , 11 km/h
Barometer: 29.91 inHg , 1012.9 hPa
Clouds: Overcast
Visibility: 10 miles , 16 km
Cloud details: Overcast 4400 ft
2022/11/27 01:57 PHNG 270157Z AUTO 03006KT 10SM OVC044 A2991 RMK AO2 SLP125 $
PHNL - Honolulu, Hawaii, USA
Distance from station: WNW 108mi, 174km
Updated: Sat, 26-Nov-2022 3:53pm HST
Mostly Cloudy
Mostly Cloudy
 Wind from NE
Wind: NE 10 mph , 17 km/h
Temperature: 79°F , 26°C
Dew Point: 61°F , 16°C
Humidity: 54%
Barometer: 29.91 inHg , 1012.9 hPa
Clouds: Mostly Cloudy
Visibility: 10 miles , 16 km
Cloud details: Partly Cloudy 2600 ft
Mostly Cloudy 5000 ft
Mostly Cloudy 22000 ft
2022/11/27 01:53 PHNL 270153Z 04009KT 10SM SCT026 BKN050 BKN220 26/16 A2991 RMK AO2 SLP129 T02560161
 
PHTO - Hilo, Hawaii, USA
Distance from station: SE 114mi, 183km
Updated: Sat, 26-Nov-2022 3:53pm HST
Partly Cloudy
Partly Cloudy
 Wind from N
Wind: N 5 mph , 7 km/h
Temperature: 75°F , 24°C
Dew Point: 63°F , 17°C
Humidity: 65%
Barometer: 29.92 inHg , 1013.2 hPa
Clouds: Partly Cloudy
Visibility: 10 miles , 16 km
Cloud details: Partly Cloudy 3000 ft
2022/11/27 01:53 PHTO 270153Z AUTO 01004KT 10SM SCT030 24/17 A2992 RMK AO2 SLP130 T02440172 TSNO
PHJR - Kalaeloa, Hawaii, USA
Distance from station: WNW 117mi, 189km
Updated: Sat, 26-Nov-2022 3:53pm HST
Overcast
Overcast
 Wind from W
Wind: W 6 mph , 9 km/h
Temperature: 77°F , 25°C
Dew Point: 63°F , 17°C
Humidity: 61%
Barometer: 29.93 inHg , 1013.5 hPa
Clouds: Overcast
Visibility: 10 miles , 16 km
Cloud details: Overcast 4800 ft
2022/11/27 01:53 PHJR 270153Z 28005KT 10SM OVC048 25/17 A2993 RMK AO2 SLP141 T02500167
 
PHHI - Wheeler Afb/Oahu, Hawaii, USA
Distance from station: WNW 120mi, 193km
Updated: Sat, 26-Nov-2022 3:55pm HST
Overcast
Overcast
 Wind from NNE
Wind: NNE 6 mph , 9 km/h
Temperature: 73°F , 23°C
Dew Point: 57°F , 14°C
Humidity: 57%
Barometer: 29.95 inHg , 1014.2 hPa
Clouds: Overcast
Visibility: 10 miles , 16 km
Cloud details: Mostly Cloudy 3500 ft
Overcast 4300 ft
2022/11/27 01:55 PHHI 270155Z AUTO 03005KT 10SM BKN035 OVC043 23/14 A2995 RMK AO2 SLP134 T02310138 $
PHLI - Lihue/Kauai Is, Hawaii, USA
Distance from station: WNW 209mi, 336km
Updated: Sat, 26-Nov-2022 3:53pm HST
Clear
Clear
 Wind from NE
Wind: NE 13 mph , 20 km/h
Temperature: 75°F , 24°C
Dew Point: 59°F , 15°C
Humidity: 57%
Barometer: 29.96 inHg , 1014.6 hPa
Clouds: Clear
Visibility: 10 miles , 16 km
2022/11/27 01:53 PHLI 270153Z 04011KT 10SM CLR 24/15 A2996 RMK AO2 SLP141 T02390150
 
PHBK - Barking Sands/Ka, Hawaii, USA
Distance from station: WNW 237mi, 382km
Updated: Sat, 26-Nov-2022 3:51pm HST
Clear
Clear
 Wind from SW
Wind: SW 9 mph , 15 km/h
Temperature: 79°F , 26°C
Dew Point: 57°F , 14°C
Humidity: 48%
Barometer: 29.92 inHg , 1013.2 hPa
Clouds: Clear
Visibility: 10 miles , 16 km
2022/11/27 01:51 PHBK 270151Z AUTO 23008KT 10SM CLR 26/14 A2992 RMK AO2 SLP134 T02560144